Time;durP1;ratioP1;P1;durP2;ratioP2;P2;SDS_P1;SDS_P2;PMS_P1;PMS_P2;Temp;Humidity;BMP_temperature;BMP_pressure;BME280_temperature;BME280_humidity;BME280_pressure;Samples;Min_cycle;Max_cycle;Signal;HPM_P1;HPM_P2
2023/05/21 00:01:15;;;;;;;14.67;8.70;;;;;;;;;;5058139;28;20350;-60
2023/05/21 00:03:41;;;;;;;15.98;9.95;;;;;;;;;;5057916;28;20276;-56
2023/05/21 00:06:06;;;;;;;17.65;9.85;;;;;;;;;;5057853;28;20544;-60
2023/05/21 00:08:33;;;;;;;16.42;10.32;;;;;;;;;;5058017;28;20468;-58
2023/05/21 00:10:58;;;;;;;21.85;10.18;;;;;;;;;;5057943;28;20081;-57
2023/05/21 00:13:23;;;;;;;15.52;9.73;;;;;;;;;;5058176;28;20016;-59
2023/05/21 00:15:49;;;;;;;16.02;10.55;;;;;;;;;;5058023;28;20101;-59
2023/05/21 00:18:15;;;;;;;18.20;10.60;;;;;;;;;;5057783;28;20279;-58
2023/05/21 00:20:40;;;;;;;18.52;10.02;;;;;;;;;;5057745;28;20449;-56
2023/05/21 00:23:06;;;;;;;19.35;10.88;;;;;;;;;;5057335;28;20074;-59
2023/05/21 00:25:31;;;;;;;15.40;9.73;;;;;;;;;;5057698;28;20017;-56
2023/05/21 00:27:57;;;;;;;15.50;10.45;;;;;;;;;;5057907;28;20086;-59
2023/05/21 00:30:22;;;;;;;15.27;9.53;;;;;;;;;;5058099;28;20507;-59
2023/05/21 00:32:47;;;;;;;15.75;9.82;;;;;;;;;;5057679;28;20336;-59
2023/05/21 00:35:12;;;;;;;18.73;11.77;;;;;;;;;;5057688;28;20017;-59
2023/05/21 00:37:38;;;;;;;18.15;10.13;;;;;;;;;;5057374;28;20732;-59
2023/05/21 00:40:05;;;;;;;16.42;9.77;;;;;;;;;;5057953;28;20079;-57
2023/05/21 00:42:31;;;;;;;18.80;10.20;;;;;;;;;;5057862;28;20047;-58
2023/05/21 00:44:56;;;;;;;15.15;10.02;;;;;;;;;;5057711;28;20460;-58
2023/05/21 00:47:22;;;;;;;17.63;10.15;;;;;;;;;;5057432;28;20039;-59
2023/05/21 00:49:47;;;;;;;16.90;10.25;;;;;;;;;;5059787;28;20028;-58
2023/05/21 00:52:13;;;;;;;17.50;11.63;;;;;;;;;;5043712;28;20024;-58
2023/05/21 00:54:39;;;;;;;16.92;10.05;;;;;;;;;;5043412;28;20460;-60
2023/05/21 00:57:05;;;;;;;18.23;9.13;;;;;;;;;;5061462;28;20636;-55
2023/05/21 00:59:30;;;;;;;17.30;9.73;;;;;;;;;;5061246;28;20040;-58
2023/05/21 01:01:55;;;;;;;19.73;10.98;;;;;;;;;;5061315;28;20376;-58
2023/05/21 01:04:24;;;;;;;15.55;11.02;;;;;;;;;;5061204;28;20056;-58
2023/05/21 01:06:49;;;;;;;20.93;10.33;;;;;;;;;;5061241;28;20555;-58
2023/05/21 01:09:15;;;;;;;15.43;10.75;;;;;;;;;;5061320;28;20020;-57
2023/05/21 01:11:42;;;;;;;16.92;10.68;;;;;;;;;;5061641;28;20035;-58
2023/05/21 01:14:09;;;;;;;21.38;10.95;;;;;;;;;;5061436;28;20017;-56
2023/05/21 01:16:36;;;;;;;21.83;11.23;;;;;;;;;;5061325;28;20008;-59
2023/05/21 01:19:02;;;;;;;16.92;10.70;;;;;;;;;;5061485;28;20047;-58
2023/05/21 01:21:28;;;;;;;17.55;11.57;;;;;;;;;;5060728;28;20452;-57
2023/05/21 01:23:53;;;;;;;16.08;10.88;;;;;;;;;;5043003;28;20025;-58
2023/05/21 01:26:18;;;;;;;19.75;11.90;;;;;;;;;;5061381;28;20027;-59
2023/05/21 01:28:44;;;;;;;16.15;11.00;;;;;;;;;;5060835;28;20025;-58
2023/05/21 01:31:30;;;;;;;15.02;10.13;;;;;;;;;;5043102;28;20476;-56
2023/05/21 01:33:59;;;;;;;26.13;12.52;;;;;;;;;;5060443;28;20035;-55
2023/05/21 01:36:25;;;;;;;;;;;;;;;;;;5061296;28;20021;-58
2023/05/21 01:39:00;;;;;;;18.42;12.20;;;;;;;;;;5060644;28;19908;-57
2023/05/21 01:41:28;;;;;;;19.52;11.45;;;;;;;;;;5060814;28;20491;-59
2023/05/21 01:43:55;;;;;;;26.33;11.45;;;;;;;;;;5060742;28;20105;-58
2023/05/21 01:46:23;;;;;;;18.55;11.35;;;;;;;;;;5060429;28;20464;-58
2023/05/21 01:48:50;;;;;;;21.85;11.48;;;;;;;;;;5060895;28;20020;-59
2023/05/21 01:51:15;;;;;;;19.50;11.45;;;;;;;;;;5060390;28;20033;-56
2023/05/21 01:53:40;;;;;;;21.38;10.95;;;;;;;;;;5060657;28;20023;-57
2023/05/21 01:56:06;;;;;;;17.17;10.88;;;;;;;;;;5060273;28;20387;-59
2023/05/21 01:58:31;;;;;;;17.80;11.88;;;;;;;;;;5060724;28;20705;-59
2023/05/21 02:00:57;;;;;;;22.60;11.02;;;;;;;;;;5059978;28;20458;-59
2023/05/21 02:03:24;;;;;;;19.15;10.98;;;;;;;;;;5060401;28;20107;-58
2023/05/21 02:05:50;;;;;;;16.85;11.00;;;;;;;;;;5060459;28;20053;-59
2023/05/21 02:08:18;;;;;;;16.35;10.95;;;;;;;;;;5041959;28;20032;-59
2023/05/21 02:10:43;;;;;;;20.52;10.88;;;;;;;;;;5060488;28;20028;-57
2023/05/21 02:13:09;;;;;;;22.55;11.23;;;;;;;;;;5059945;28;20081;-58
2023/05/21 02:15:34;;;;;;;18.38;10.88;;;;;;;;;;5060245;28;20444;-59
2023/05/21 02:17:59;;;;;;;19.95;11.20;;;;;;;;;;5060013;28;20570;-57
2023/05/21 02:20:25;;;;;;;19.45;11.02;;;;;;;;;;5060181;28;20024;-59
2023/05/21 02:22:50;;;;;;;19.15;10.93;;;;;;;;;;5060230;28;20025;-57
2023/05/21 02:25:17;;;;;;;20.13;10.52;;;;;;;;;;5059986;28;20464;-56
2023/05/21 02:27:43;;;;;;;20.73;12.73;;;;;;;;;;5059875;28;20120;-58
2023/05/21 02:30:12;;;;;;;19.63;10.23;;;;;;;;;;5060039;28;20074;-58
2023/05/21 02:32:41;;;;;;;;;;;;;;;;;;5060803;28;20115;-59
2023/05/21 02:35:06;;;;;;;16.77;9.90;;;;;;;;;;5041852;28;19944;-58
2023/05/21 02:37:32;;;;;;;22.20;10.88;;;;;;;;;;5059471;28;20117;-59
2023/05/21 02:39:58;;;;;;;15.18;10.60;;;;;;;;;;5060103;28;20024;-59
2023/05/21 02:42:24;;;;;;;16.70;11.30;;;;;;;;;;5059691;28;20036;-56
2023/05/21 02:44:50;;;;;;;19.00;11.65;;;;;;;;;;5060063;28;20492;-58
2023/05/21 02:47:15;;;;;;;22.05;11.77;;;;;;;;;;5058984;28;20472;-59
2023/05/21 02:49:40;;;;;;;16.30;10.70;;;;;;;;;;5060164;28;20024;-55
2023/05/21 02:52:06;;;;;;;18.55;11.57;;;;;;;;;;5059506;28;20032;-59
2023/05/21 02:54:31;;;;;;;18.33;11.35;;;;;;;;;;5059656;28;20444;-60
2023/05/21 02:56:56;;;;;;;18.95;11.07;;;;;;;;;;5041226;28;20024;-58
2023/05/21 02:59:22;;;;;;;19.77;11.57;;;;;;;;;;5059386;28;20344;-59
2023/05/21 03:01:47;;;;;;;20.90;11.48;;;;;;;;;;5059897;28;20070;-59
2023/05/21 03:04:12;;;;;;;19.27;11.20;;;;;;;;;;5059024;28;20024;-58
2023/05/21 03:06:38;;;;;;;21.10;13.07;;;;;;;;;;5059769;28;20052;-59
2023/05/21 03:09:04;;;;;;;15.15;10.65;;;;;;;;;;5058786;28;20494;-58
2023/05/21 03:11:30;;;;;;;16.25;11.23;;;;;;;;;;5058808;28;20127;-58
2023/05/21 03:13:55;;;;;;;18.10;11.60;;;;;;;;;;5058899;28;20108;-60
2023/05/21 03:16:21;;;;;;;20.23;11.45;;;;;;;;;;5041542;28;20024;-57
2023/05/21 03:18:46;;;;;;;18.33;10.80;;;;;;;;;;5059271;28;20024;-58
2023/05/21 03:21:14;;;;;;;19.77;9.55;;;;;;;;;;5058956;28;20460;-58
2023/05/21 03:23:40;;;;;;;15.43;10.55;;;;;;;;;;5059535;28;20024;-57
2023/05/21 03:26:05;;;;;;;16.83;9.95;;;;;;;;;;5058648;28;20345;-58
2023/05/21 03:28:31;;;;;;;18.35;10.25;;;;;;;;;;5059133;28;20020;-59
2023/05/21 03:30:56;;;;;;;17.33;10.60;;;;;;;;;;5059133;28;20056;-60
2023/05/21 03:33:21;;;;;;;15.48;10.20;;;;;;;;;;5059250;28;20246;-58
2023/05/21 03:35:47;;;;;;;13.25;9.55;;;;;;;;;;5058521;28;20059;-59
2023/05/21 03:38:12;;;;;;;17.77;10.15;;;;;;;;;;5058716;28;20682;-57
2023/05/21 03:40:37;;;;;;;17.08;10.10;;;;;;;;;;5058855;28;20050;-55
2023/05/21 03:43:03;;;;;;;18.33;10.13;;;;;;;;;;5058949;28;20409;-58
2023/05/21 03:45:28;;;;;;;18.73;9.70;;;;;;;;;;5058433;28;20483;-57
2023/05/21 03:47:53;;;;;;;18.15;10.23;;;;;;;;;;5058157;28;20058;-59
2023/05/21 03:50:18;;;;;;;16.52;10.10;;;;;;;;;;5058733;28;20460;-56
2023/05/21 03:52:44;;;;;;;17.90;9.82;;;;;;;;;;5058768;28;20444;-58
2023/05/21 03:55:09;;;;;;;15.85;9.32;;;;;;;;;;5058290;28;20467;-58
2023/05/21 03:57:34;;;;;;;19.30;9.65;;;;;;;;;;5057800;28;20032;-59
2023/05/21 04:00:00;;;;;;;15.65;9.52;;;;;;;;;;5058556;28;20028;-57
2023/05/21 04:02:26;;;;;;;14.80;8.73;;;;;;;;;;5058560;28;20115;-56
2023/05/21 04:04:52;;;;;;;14.88;8.40;;;;;;;;;;5058395;28;20369;-59
2023/05/21 04:07:18;;;;;;;14.55;9.02;;;;;;;;;;5040149;28;20048;-57
2023/05/21 04:09:43;;;;;;;14.73;9.50;;;;;;;;;;5058324;28;20521;-59
2023/05/21 04:12:08;;;;;;;15.75;8.38;;;;;;;;;;5058149;28;20062;-59
2023/05/21 04:14:35;;;;;;;12.88;8.35;;;;;;;;;;5058245;28;20020;-58
2023/05/21 04:17:04;;;;;;;13.18;8.07;;;;;;;;;;5040126;28;20452;-57
2023/05/21 04:19:29;;;;;;;22.10;8.43;;;;;;;;;;5057827;28;20111;-61
2023/05/21 04:21:54;;;;;;;14.90;8.43;;;;;;;;;;5057916;28;20139;-59
2023/05/21 04:24:21;;;;;;;11.18;7.82;;;;;;;;;;5058309;28;20238;-60
2023/05/21 04:26:46;;;;;;;13.45;8.00;;;;;;;;;;5057846;28;20020;-60
2023/05/21 04:29:12;;;;;;;14.18;8.43;;;;;;;;;;5057676;28;20051;-60
2023/05/21 04:31:37;;;;;;;10.05;7.10;;;;;;;;;;5058074;28;20380;-58
2023/05/21 04:34:02;;;;;;;10.48;6.90;;;;;;;;;;5058039;28;20313;-59
2023/05/21 04:36:28;;;;;;;12.65;8.13;;;;;;;;;;5058047;28;20103;-59
2023/05/21 04:38:54;;;;;;;9.35;6.97;;;;;;;;;;5057924;28;20374;-59
2023/05/21 04:41:20;;;;;;;13.48;7.25;;;;;;;;;;5057564;28;20456;-58
2023/05/21 04:43:45;;;;;;;11.00;7.20;;;;;;;;;;5057523;28;20020;-59
2023/05/21 04:46:10;;;;;;;12.18;7.35;;;;;;;;;;4994875;28;20076;-54
2023/05/21 04:48:36;;;;;;;11.85;6.93;;;;;;;;;;4995173;28;20061;-60
2023/05/21 04:51:04;;;;;;;10.75;7.25;;;;;;;;;;4994982;28;20394;-57
2023/05/21 04:53:30;;;;;;;12.80;7.68;;;;;;;;;;4994988;28;20058;-60
2023/05/21 04:55:58;;;;;;;16.13;7.30;;;;;;;;;;4994650;28;20567;-58
2023/05/21 04:58:23;;;;;;;14.13;8.35;;;;;;;;;;4978434;28;20037;-58
2023/05/21 05:00:50;;;;;;;9.73;6.97;;;;;;;;;;4975471;28;20034;-59
2023/05/21 05:03:15;;;;;;;15.30;8.35;;;;;;;;;;4959115;28;20085;-58
2023/05/21 05:05:40;;;;;;;11.53;6.77;;;;;;;;;;4975391;28;20055;-57
2023/05/21 05:08:06;;;;;;;13.38;7.53;;;;;;;;;;4975147;28;20303;-61
2023/05/21 05:10:31;;;;;;;10.15;7.32;;;;;;;;;;4975406;28;20039;-59
2023/05/21 05:12:57;;;;;;;10.90;7.27;;;;;;;;;;4975275;28;20037;-59
2023/05/21 05:15:22;;;;;;;14.50;7.93;;;;;;;;;;4959093;28;20405;-58
2023/05/21 05:17:49;;;;;;;10.82;6.95;;;;;;;;;;5004458;28;20033;-59
2023/05/21 05:20:14;;;;;;;11.55;6.90;;;;;;;;;;5014599;28;20087;-57
2023/05/21 05:22:40;;;;;;;16.08;9.02;;;;;;;;;;5014976;28;20053;-58
2023/05/21 05:25:05;;;;;;;14.90;9.73;;;;;;;;;;5014522;28;20061;-60
2023/05/21 05:27:31;;;;;;;14.30;8.10;;;;;;;;;;5014575;28;20936;-59
2023/05/21 05:29:56;;;;;;;16.52;7.13;;;;;;;;;;5014560;28;20112;-59
2023/05/21 05:32:21;;;;;;;8.60;6.35;;;;;;;;;;5045099;28;20151;-59
2023/05/21 05:34:46;;;;;;;11.98;7.28;;;;;;;;;;5057756;28;20020;-55
2023/05/21 05:37:12;;;;;;;11.03;6.40;;;;;;;;;;5061054;28;20020;-59
2023/05/21 05:39:37;;;;;;;11.10;6.93;;;;;;;;;;5060765;28;20710;-59
2023/05/21 05:42:02;;;;;;;11.53;7.30;;;;;;;;;;5060776;28;20283;-57
2023/05/21 05:44:28;;;;;;;12.30;7.47;;;;;;;;;;5060928;28;20262;-59
2023/05/21 05:46:53;;;;;;;12.80;7.13;;;;;;;;;;5060765;28;20070;-60
2023/05/21 05:49:18;;;;;;;12.27;7.18;;;;;;;;;;5060828;28;20269;-57
2023/05/21 05:51:44;;;;;;;16.27;7.13;;;;;;;;;;5060648;28;20473;-57
2023/05/21 05:54:09;;;;;;;9.45;6.40;;;;;;;;;;5060463;28;20540;-60
2023/05/21 05:56:34;;;;;;;10.00;5.80;;;;;;;;;;5060112;28;20012;-58
2023/05/21 05:59:00;;;;;;;14.27;6.55;;;;;;;;;;5060392;28;20051;-58
2023/05/21 06:01:25;;;;;;;10.27;6.35;;;;;;;;;;5060360;28;20399;-58
2023/05/21 06:03:51;;;;;;;10.65;6.68;;;;;;;;;;5060633;28;20036;-59
2023/05/21 06:06:16;;;;;;;12.90;6.90;;;;;;;;;;5060464;28;20063;-58
2023/05/21 06:08:42;;;;;;;9.23;6.38;;;;;;;;;;5060199;28;20618;-60
2023/05/21 06:11:07;;;;;;;10.27;6.60;;;;;;;;;;5060346;28;20108;-57
2023/05/21 06:13:33;;;;;;;11.82;6.30;;;;;;;;;;5060073;28;20589;-59
2023/05/21 06:15:58;;;;;;;12.27;6.25;;;;;;;;;;5041857;28;20460;-57
2023/05/21 06:18:23;;;;;;;13.18;6.55;;;;;;;;;;5060361;28;20021;-58
2023/05/21 06:20:49;;;;;;;8.90;6.17;;;;;;;;;;5060466;28;20472;-60
2023/05/21 06:23:14;;;;;;;14.73;6.90;;;;;;;;;;5059579;28;20238;-60
2023/05/21 06:25:39;;;;;;;11.48;6.03;;;;;;;;;;5060183;28;20519;-58
2023/05/21 06:28:05;;;;;;;9.82;6.40;;;;;;;;;;5060012;28;20098;-59
2023/05/21 06:30:30;;;;;;;11.35;6.05;;;;;;;;;;5060114;28;20502;-60
2023/05/21 06:32:56;;;;;;;14.97;6.57;;;;;;;;;;5059811;28;20609;-58
2023/05/21 06:35:21;;;;;;;12.15;6.45;;;;;;;;;;5041577;28;20151;-56
2023/05/21 06:37:47;;;;;;;8.25;5.57;;;;;;;;;;5059473;28;20107;-59
2023/05/21 06:40:12;;;;;;;11.15;6.53;;;;;;;;;;5059850;28;20136;-59
2023/05/21 06:42:38;;;;;;;11.77;6.65;;;;;;;;;;5060174;28;20028;-58
2023/05/21 06:45:03;;;;;;;10.48;6.13;;;;;;;;;;5042554;28;20021;-60
2023/05/21 06:47:28;;;;;;;8.85;5.53;;;;;;;;;;5038596;28;20021;-60
2023/05/21 06:49:54;;;;;;;9.60;6.07;;;;;;;;;;5039489;28;20021;-58
2023/05/21 06:52:19;;;;;;;8.47;5.47;;;;;;;;;;5044283;28;20241;-62
2023/05/21 06:54:44;;;;;;;8.80;5.65;;;;;;;;;;5038953;28;20796;-60
2023/05/21 06:57:10;;;;;;;6.63;5.10;;;;;;;;;;5039383;28;20013;-59
2023/05/21 06:59:35;;;;;;;12.70;6.00;;;;;;;;;;5038596;28;20542;-56
2023/05/21 07:02:00;;;;;;;10.03;5.63;;;;;;;;;;5048100;28;20081;-58
2023/05/21 07:04:26;;;;;;;11.60;6.10;;;;;;;;;;5045885;28;20317;-59
2023/05/21 07:06:52;;;;;;;11.10;5.68;;;;;;;;;;5053429;28;20503;-57
2023/05/21 07:09:17;;;;;;;12.00;5.90;;;;;;;;;;5042840;28;20025;-57
2023/05/21 07:11:43;;;;;;;9.20;6.10;;;;;;;;;;5057841;28;20024;-60
2023/05/21 07:14:10;;;;;;;7.00;5.60;;;;;;;;;;5052424;28;20048;-57
2023/05/21 07:16:35;;;;;;;8.20;5.20;;;;;;;;;;5046984;28;20441;-60
2023/05/21 07:19:00;;;;;;;13.50;5.85;;;;;;;;;;5046471;28;20535;-59
2023/05/21 07:21:26;;;;;;;10.47;5.40;;;;;;;;;;5032949;28;20720;-60
2023/05/21 07:23:51;;;;;;;6.60;4.57;;;;;;;;;;5039511;28;20317;-59
2023/05/21 07:26:16;;;;;;;7.33;5.27;;;;;;;;;;5038870;28;20246;-57
2023/05/21 07:28:41;;;;;;;9.40;5.07;;;;;;;;;;5038945;28;20556;-59
2023/05/21 07:31:07;;;;;;;18.60;6.20;;;;;;;;;;5038691;28;20047;-59
2023/05/21 07:33:32;;;;;;;9.40;5.72;;;;;;;;;;5038352;28;20021;-59
2023/05/21 07:35:58;;;;;;;9.23;5.20;;;;;;;;;;5038502;28;20055;-59
2023/05/21 07:38:23;;;;;;;8.47;5.10;;;;;;;;;;5038698;28;20108;-59
2023/05/21 07:40:48;;;;;;;7.00;5.13;;;;;;;;;;5038822;28;20608;-59
2023/05/21 07:43:14;;;;;;;7.97;4.70;;;;;;;;;;5038817;28;20749;-60
2023/05/21 07:45:39;;;;;;;11.07;5.70;;;;;;;;;;5038129;28;20131;-61
2023/05/21 07:48:04;;;;;;;7.90;5.27;;;;;;;;;;5038279;28;20289;-58
2023/05/21 07:50:30;;;;;;;8.52;4.90;;;;;;;;;;5038196;28;20254;-59
2023/05/21 07:52:55;;;;;;;14.32;4.38;;;;;;;;;;5038226;28;20079;-60
2023/05/21 07:55:20;;;;;;;8.50;4.75;;;;;;;;;;5038053;28;20021;-57
2023/05/21 07:57:46;;;;;;;6.13;4.78;;;;;;;;;;5037751;28;20021;-60
2023/05/21 08:00:13;;;;;;;9.60;4.83;;;;;;;;;;5038412;28;20017;-60
2023/05/21 08:02:38;;;;;;;9.05;4.78;;;;;;;;;;5038415;28;20549;-59
2023/05/21 08:05:04;;;;;;;10.55;5.03;;;;;;;;;;5047092;28;20067;-60
2023/05/21 08:07:30;;;;;;;7.05;5.35;;;;;;;;;;5053368;28;20157;-59
2023/05/21 08:09:56;;;;;;;7.43;4.72;;;;;;;;;;5039894;28;20029;-59
2023/05/21 08:12:21;;;;;;;6.65;4.28;;;;;;;;;;5038585;28;20096;-60
2023/05/21 08:14:46;;;;;;;9.17;4.83;;;;;;;;;;5038104;28;20697;-60
2023/05/21 08:17:12;;;;;;;8.10;4.87;;;;;;;;;;5037897;28;20032;-59
2023/05/21 08:19:37;;;;;;;8.40;4.55;;;;;;;;;;5038431;28;20446;-59
2023/05/21 08:22:02;;;;;;;5.97;4.43;;;;;;;;;;5038007;28;20025;-60
2023/05/21 08:24:27;;;;;;;6.68;4.20;;;;;;;;;;4987561;28;20250;-60
2023/05/21 08:26:53;;;;;;;9.13;4.83;;;;;;;;;;5039285;28;20032;-55
2023/05/21 08:29:18;;;;;;;7.40;5.03;;;;;;;;;;5039349;28;20328;-59
2023/05/21 08:31:43;;;;;;;7.57;4.47;;;;;;;;;;5039040;28;20066;-56
2023/05/21 08:34:09;;;;;;;7.73;4.60;;;;;;;;;;5039378;28;20630;-59
2023/05/21 08:36:34;;;;;;;8.13;5.03;;;;;;;;;;5039537;28;20281;-59
2023/05/21 08:39:00;;;;;;;9.75;4.97;;;;;;;;;;5022092;28;20361;-57
2023/05/21 08:41:26;;;;;;;7.93;5.07;;;;;;;;;;5039142;28;20036;-59
2023/05/21 08:43:56;;;;;;;7.93;5.13;;;;;;;;;;5039117;28;20044;-59
2023/05/21 08:46:22;;;;;;;6.80;4.68;;;;;;;;;;5021295;28;20043;-58
2023/05/21 08:48:48;;;;;;;7.72;5.13;;;;;;;;;;5038137;28;20017;-58
2023/05/21 08:51:13;;;;;;;7.95;4.50;;;;;;;;;;5040107;28;20127;-59
2023/05/21 08:53:38;;;;;;;7.33;4.53;;;;;;;;;;5040744;28;20056;-59
2023/05/21 08:56:04;;;;;;;8.53;4.13;;;;;;;;;;5040903;28;20433;-58
2023/05/21 08:58:31;;;;;;;7.30;4.38;;;;;;;;;;5040102;28;20944;-60
2023/05/21 09:00:56;;;;;;;10.95;4.30;;;;;;;;;;5040138;28;20028;-61
2023/05/21 09:03:22;;;;;;;9.50;4.50;;;;;;;;;;5038682;28;20488;-60
2023/05/21 09:05:48;;;;;;;10.60;4.07;;;;;;;;;;5039113;28;20898;-59
2023/05/21 09:08:31;;;;;;;8.48;4.07;;;;;;;;;;5038113;28;20013;-58
2023/05/21 09:10:56;;;;;;;12.48;4.32;;;;;;;;;;5022447;28;20783;-59
2023/05/21 09:13:23;;;;;;;7.18;4.22;;;;;;;;;;5042848;28;20029;-60
2023/05/21 09:15:50;;;;;;;9.00;4.15;;;;;;;;;;5046227;28;20027;-60
2023/05/21 09:18:15;;;;;;;11.40;4.20;;;;;;;;;;5047351;28;20032;-58
2023/05/21 09:20:40;;;;;;;6.17;3.80;;;;;;;;;;5052642;28;20013;-59
2023/05/21 09:23:11;;;;;;;7.25;3.75;;;;;;;;;;5067378;28;20252;-59
2023/05/21 09:25:37;;;;;;;9.15;4.53;;;;;;;;;;5059631;28;20016;-60
2023/05/21 09:28:02;;;;;;;6.28;4.00;;;;;;;;;;5046629;28;20380;-61
2023/05/21 09:30:27;;;;;;;6.40;3.67;;;;;;;;;;5046845;28;20465;-60
2023/05/21 09:32:55;;;;;;;5.03;4.00;;;;;;;;;;5046668;28;20662;-59
2023/05/21 09:35:20;;;;;;;5.00;3.72;;;;;;;;;;5046266;28;20258;-61
2023/05/21 09:37:51;;;;;;;5.28;4.00;;;;;;;;;;5046690;28;20024;-60
2023/05/21 09:40:17;;;;;;;9.05;4.05;;;;;;;;;;5046876;28;20369;-59
2023/05/21 09:42:44;;;;;;;7.55;3.80;;;;;;;;;;5046357;28;20082;-60
2023/05/21 09:45:10;;;;;;;5.15;3.70;;;;;;;;;;5045661;28;20036;-58
2023/05/21 09:47:46;;;;;;;8.07;3.88;;;;;;;;;;5048573;28;20055;-60
2023/05/21 09:50:12;;;;;;;5.50;3.88;;;;;;;;;;5040151;28;20021;-61
2023/05/21 09:52:37;;;;;;;9.38;4.05;;;;;;;;;;5043553;28;20020;-60
2023/05/21 09:55:05;;;;;;;5.03;3.63;;;;;;;;;;5042169;28;20079;-58
2023/05/21 09:57:31;;;;;;;7.88;3.55;;;;;;;;;;5040376;28;20529;-60
2023/05/21 09:59:57;;;;;;;4.33;3.77;;;;;;;;;;5040441;28;20111;-61
2023/05/21 10:02:23;;;;;;;5.70;3.85;;;;;;;;;;5040508;28;20036;-61
2023/05/21 10:04:49;;;;;;;4.68;3.85;;;;;;;;;;5040688;28;20032;-60
2023/05/21 10:07:17;;;;;;;6.55;3.60;;;;;;;;;;5040559;28;20049;-58
2023/05/21 10:09:44;;;;;;;5.90;3.30;;;;;;;;;;5040674;28;20036;-61
2023/05/21 10:12:10;;;;;;;4.45;3.40;;;;;;;;;;5040383;28;20029;-58
2023/05/21 10:14:35;;;;;;;5.00;3.30;;;;;;;;;;5040309;28;20036;-60
2023/05/21 10:17:01;;;;;;;4.65;3.70;;;;;;;;;;5040364;28;20017;-58
2023/05/21 10:19:28;;;;;;;6.15;3.75;;;;;;;;;;5040218;28;20052;-59
2023/05/21 10:21:55;;;;;;;4.90;3.60;;;;;;;;;;5040067;28;20017;-60
2023/05/21 10:24:21;;;;;;;5.72;3.85;;;;;;;;;;5039984;28;20111;-60
2023/05/21 10:26:47;;;;;;;13.50;4.38;;;;;;;;;;5020885;28;20185;-58
2023/05/21 10:29:14;;;;;;;5.28;3.50;;;;;;;;;;5039855;28;20036;-60
2023/05/21 10:31:39;;;;;;;9.98;4.45;;;;;;;;;;5040037;28;20053;-60
2023/05/21 10:34:05;;;;;;;7.85;4.25;;;;;;;;;;5039888;28;20166;-60
2023/05/21 10:36:31;;;;;;;7.68;4.05;;;;;;;;;;5040074;28;20070;-59
2023/05/21 10:38:57;;;;;;;5.90;4.03;;;;;;;;;;5021872;28;20025;-56
2023/05/21 10:41:23;;;;;;;7.57;4.10;;;;;;;;;;5039634;28;20032;-60
2023/05/21 10:43:51;;;;;;;5.03;3.30;;;;;;;;;;5039637;28;20060;-60
2023/05/21 10:46:16;;;;;;;;;;;;;;;;;;5022188;28;20388;-57
2023/05/21 10:49:00;;;;;;;14.23;3.90;;;;;;;;;;5039469;28;19909;-59
2023/05/21 10:51:28;;;;;;;5.50;4.03;;;;;;;;;;5039423;28;20159;-59
2023/05/21 10:54:12;;;;;;;6.00;4.05;;;;;;;;;;5039301;28;20090;-59
2023/05/21 10:56:47;;;;;;;5.93;4.07;;;;;;;;;;5039077;28;20380;-60
2023/05/21 10:59:20;;;;;;;8.13;4.32;;;;;;;;;;5039640;28;20428;-57
2023/05/21 11:01:47;;;;;;;4.72;3.80;;;;;;;;;;5039424;28;20493;-59
2023/05/21 11:04:14;;;;;;;6.38;4.18;;;;;;;;;;5039509;28;20264;-58
2023/05/21 11:06:39;;;;;;;7.38;4.05;;;;;;;;;;5039566;28;20041;-58
2023/05/21 11:09:12;;;;;;;7.63;4.60;;;;;;;;;;5038921;28;20033;-57
2023/05/21 11:11:42;;;;;;;5.60;3.83;;;;;;;;;;5021263;28;20293;-58
2023/05/21 11:14:26;;;;;;;9.45;4.32;;;;;;;;;;5038697;28;20495;-58
2023/05/21 11:16:51;;;;;;;7.65;4.18;;;;;;;;;;5038916;28;20039;-59
2023/05/21 11:19:17;;;;;;;12.85;4.63;;;;;;;;;;5038968;28;20012;-60
2023/05/21 11:21:42;;;;;;;6.82;4.10;;;;;;;;;;5038831;28;20023;-59
2023/05/21 11:24:09;;;;;;;11.63;4.13;;;;;;;;;;5038823;28;20059;-58
2023/05/21 11:26:46;;;;;;;3.78;3.35;;;;;;;;;;4996075;28;20248;-58
2023/05/21 11:29:12;;;;;;;8.35;4.35;;;;;;;;;;4996333;28;20038;-60
2023/05/21 11:31:37;;;;;;;8.05;3.97;;;;;;;;;;4996271;28;20048;-58
2023/05/21 11:34:17;;;;;;;5.75;4.22;;;;;;;;;;4995718;28;20030;-56
2023/05/21 11:36:43;;;;;;;7.93;4.10;;;;;;;;;;4996231;28;20030;-59
2023/05/21 11:39:21;;;;;;;6.53;4.20;;;;;;;;;;4995875;28;20026;-57
2023/05/21 11:41:49;;;;;;;7.85;4.38;;;;;;;;;;4995919;28;20030;-58
2023/05/21 11:44:15;;;;;;;7.35;4.15;;;;;;;;;;4995952;28;20057;-57
2023/05/21 11:46:41;;;;;;;15.35;4.60;;;;;;;;;;4995954;28;20123;-60
2023/05/21 11:49:06;;;;;;;5.32;3.97;;;;;;;;;;4995874;28;20671;-59
2023/05/21 11:51:32;;;;;;;6.80;4.35;;;;;;;;;;4995871;28;20120;-56
2023/05/21 11:53:57;;;;;;;6.00;4.18;;;;;;;;;;4996068;28;20551;-61
2023/05/21 11:56:24;;;;;;;6.57;4.78;;;;;;;;;;4995623;28;20378;-57
2023/05/21 11:58:53;;;;;;;9.73;4.38;;;;;;;;;;5038359;28;20465;-61
2023/05/21 12:01:22;;;;;;;9.10;4.97;;;;;;;;;;5038191;28;20029;-56
2023/05/21 12:03:47;;;;;;;7.07;4.40;;;;;;;;;;5038414;28;20023;-59
2023/05/21 12:06:13;;;;;;;7.57;4.27;;;;;;;;;;5038596;28;20542;-58
2023/05/21 12:08:38;;;;;;;6.97;4.20;;;;;;;;;;5038012;28;20277;-59
2023/05/21 12:11:03;;;;;;;7.90;4.57;;;;;;;;;;5038029;28;20095;-60
2023/05/21 12:13:29;;;;;;;8.02;4.30;;;;;;;;;;5038167;28;20242;-58
2023/05/21 12:15:54;;;;;;;6.28;4.72;;;;;;;;;;5037819;28;20013;-58
2023/05/21 12:18:20;;;;;;;7.28;4.90;;;;;;;;;;5038002;28;20534;-58
2023/05/21 12:20:45;;;;;;;7.22;4.65;;;;;;;;;;5038484;28;20132;-60
2023/05/21 12:23:23;;;;;;;10.80;4.55;;;;;;;;;;5037680;28;20024;-58
2023/05/21 12:25:48;;;;;;;8.15;4.13;;;;;;;;;;5038113;28;20493;-60
2023/05/21 12:28:14;;;;;;;12.00;4.30;;;;;;;;;;5037659;28;20051;-58
2023/05/21 12:30:39;;;;;;;7.28;4.43;;;;;;;;;;5037912;28;20254;-55
2023/05/21 12:33:05;;;;;;;5.10;3.80;;;;;;;;;;5038002;28;20078;-56
2023/05/21 12:35:31;;;;;;;5.60;3.90;;;;;;;;;;5037614;28;20398;-57
2023/05/21 12:37:56;;;;;;;12.88;4.75;;;;;;;;;;5037521;28;20052;-59
2023/05/21 12:40:33;;;;;;;9.00;4.18;;;;;;;;;;5037544;28;20040;-57
2023/05/21 12:42:58;;;;;;;13.55;4.82;;;;;;;;;;5037710;28;20103;-55
2023/05/21 12:45:24;;;;;;;4.67;4.10;;;;;;;;;;5036563;28;20116;-58
2023/05/21 12:47:54;;;;;;;10.32;4.70;;;;;;;;;;5037807;28;20269;-60
2023/05/21 12:50:20;;;;;;;5.53;4.20;;;;;;;;;;5037459;28;20028;-57
2023/05/21 12:52:45;;;;;;;6.13;4.07;;;;;;;;;;5037485;28;20078;-60
2023/05/21 12:55:12;;;;;;;7.50;5.03;;;;;;;;;;5037240;28;20013;-56
2023/05/21 12:57:37;;;;;;;7.38;3.88;;;;;;;;;;5037406;28;20245;-59
2023/05/21 13:00:05;;;;;;;7.63;4.45;;;;;;;;;;5037226;28;20017;-59
2023/05/21 13:02:31;;;;;;;6.10;4.40;;;;;;;;;;5037577;28;20060;-56
2023/05/21 13:05:07;;;;;;;9.35;5.00;;;;;;;;;;5037383;28;20021;-56
2023/05/21 13:07:33;;;;;;;10.82;4.80;;;;;;;;;;5036890;28;20072;-59
2023/05/21 13:09:59;;;;;;;7.18;3.70;;;;;;;;;;5037266;28;20025;-57
2023/05/21 13:12:25;;;;;;;9.32;4.25;;;;;;;;;;5037867;28;20051;-56
2023/05/21 13:14:51;;;;;;;5.10;3.97;;;;;;;;;;5037417;28;20032;-59
2023/05/21 13:17:17;;;;;;;8.00;4.43;;;;;;;;;;5037782;28;20368;-58
2023/05/21 13:20:04;;;;;;;14.90;4.30;;;;;;;;;;5036884;28;20032;-58
2023/05/21 13:22:30;;;;;;;6.18;4.25;;;;;;;;;;5037707;28;20025;-58
2023/05/21 13:24:55;;;;;;;5.65;4.10;;;;;;;;;;5037562;28;20184;-59
2023/05/21 13:27:20;;;;;;;11.13;3.90;;;;;;;;;;5037212;28;20025;-60
2023/05/21 13:29:45;;;;;;;11.70;4.80;;;;;;;;;;5037252;28;20466;-58
2023/05/21 13:32:11;;;;;;;8.57;4.23;;;;;;;;;;5037296;28;20282;-59
2023/05/21 13:34:36;;;;;;;8.50;3.83;;;;;;;;;;5037194;28;20054;-59
2023/05/21 13:37:01;;;;;;;6.47;4.40;;;;;;;;;;5037008;28;20056;-60
2023/05/21 13:39:26;;;;;;;6.90;3.73;;;;;;;;;;5037521;28;20012;-60
2023/05/21 13:41:52;;;;;;;7.30;4.07;;;;;;;;;;5037189;28;20523;-58
2023/05/21 13:44:17;;;;;;;7.05;4.18;;;;;;;;;;5037104;28;20021;-59
2023/05/21 13:46:43;;;;;;;8.07;3.50;;;;;;;;;;5037099;28;20078;-56
2023/05/21 13:49:08;;;;;;;6.72;4.22;;;;;;;;;;5036964;28;20282;-58
2023/05/21 13:51:34;;;;;;;6.67;4.90;;;;;;;;;;5036949;28;20074;-59
2023/05/21 13:53:59;;;;;;;6.63;4.35;;;;;;;;;;5036912;28;20504;-60
2023/05/21 13:56:24;;;;;;;6.37;5.10;;;;;;;;;;5037971;28;20064;-58
2023/05/21 13:58:50;;;;;;;8.73;4.22;;;;;;;;;;5022678;28;20273;-58
2023/05/21 14:01:15;;;;;;;6.38;4.28;;;;;;;;;;5040821;28;20025;-59
2023/05/21 14:03:40;;;;;;;8.57;4.38;;;;;;;;;;5040404;28;20021;-58
2023/05/21 14:06:07;;;;;;;5.83;4.27;;;;;;;;;;5040487;28;20045;-59
2023/05/21 14:08:32;;;;;;;9.98;3.95;;;;;;;;;;5040765;28;20350;-60
2023/05/21 14:10:57;;;;;;;8.35;3.95;;;;;;;;;;5040650;28;20037;-60
2023/05/21 14:13:23;;;;;;;9.63;4.60;;;;;;;;;;5040221;28;20086;-57
2023/05/21 14:15:48;;;;;;;8.32;4.57;;;;;;;;;;5040567;28;20472;-60
2023/05/21 14:18:13;;;;;;;7.32;4.25;;;;;;;;;;5040079;28;20033;-57
2023/05/21 14:20:39;;;;;;;5.65;4.15;;;;;;;;;;5040730;28;20055;-58
2023/05/21 14:23:04;;;;;;;9.70;4.67;;;;;;;;;;5040495;28;20118;-58
2023/05/21 14:25:29;;;;;;;8.88;4.43;;;;;;;;;;5040076;28;20016;-54
2023/05/21 14:27:55;;;;;;;7.32;4.38;;;;;;;;;;5039764;28;20025;-59